Airfield :
LOGIN :

Register | Disclaimer

   EN    FR    IT 

 










Legend :    VFR   Marginal VFR   IFR   Intensive IFR   Very Intensive IFR
Visi :
Ceiling :
>= 8 km
>= 3000ft
5 to 8 km
1000 to 3000 ft
1500m to 5 km
500 to 1000 ft
800 to 1500m
200 to 500 ft
< 800m
< 200 ft
Symbols :   Thunderstorms  Fog  Heavy snow  Heavy precipitations  Wind > 20 kt
SIGMETs :     Misc.  Thunderstorms  Icing  Turbulence  Mountain Waves  Volcanic Ashes






- Airport Elevation : 62 ft
- IATA code : TAN


GMTT - Tanger Ibn Batouta

CURRENT METAR :
  • 200400Z 08009KT 9999 FEW033 SCT070 16/15 Q1012 NOSIG

EXPIRED METARs :
  • 200330Z 07009KT 8000 FEW030 SCT150 16/14 Q1013 NOSIG
  • 200300Z 09007KT 8000 FEW030 SCT200 15/15 Q1013 NOSIG
  • 200230Z 10008KT 8000 FEW030 SCT200 16/15 Q1013 NOSIG
  • 200200Z 10009KT 8000 FEW030 SCT200 16/14 Q1013 NOSIG
  • 200130Z 12010KT 090V150 8000 FEW030 SCT200 17/14 Q1013 NOSIG
  • 200100Z 10009KT 8000 FEW026 SCT200 16/14 Q1014 NOSIG
  • 200030Z 13004KT 100V160 8000 FEW026 SCT150 17/14 Q1014 NOSIG
  • 200000Z 11005KT 090V170 8000 FEW026 SCT150 17/14 Q1014 NOSIG
  • 192330Z 11007KT 8000 NSC 17/13 Q1014 NOSIG

TAF TAF GMTT
Valid from the 20 at 00:00 until the 21 at 06:00 UTC


192300Z 2000/2106 09012KT 8000 NSC
TEMPO 2009/2018 4000 -RA SCT016 BKN030
PROB30
TEMPO 2012/2017 4000 -TSRA FEW040CB



MET'MAP, your aeronautical weather chart ! - Copyright ORBIFLY December 2007 - Disclaimer

ORBIFLY MET'MAP TEAM :

Programming & Development : Alexandra Zaïnal
Original concept : Baudouin d'Aumeries
Technical & hardware support : Manuel Goepfert
Assistance : Marc-Olivier Méhu




SOURCES & CREDITS :

   NOAA